Time;durP1;ratioP1;P1;durP2;ratioP2;P2;SDS_P1;SDS_P2;PMS_P1;PMS_P2;Temp;Humidity;BMP_temperature;BMP_pressure;BME280_temperature;BME280_humidity;BME280_pressure;Samples;Min_cycle;Max_cycle;Signal;HPM_P1;HPM_P2
2021/07/23 00:01:32;;;;;;;15.43;11.07;;;;;;;;;;5035563;28;20021;-82
2021/07/23 00:04:17;;;;;;;18.65;11.10;;;;;;;;;;5035434;28;20028;-82
2021/07/23 00:07:02;;;;;;;15.35;11.77;;;;;;;;;;5035555;28;20017;-82
2021/07/23 00:09:47;;;;;;;13.93;11.25;;;;;;;;;;5021743;28;20029;-82
2021/07/23 00:12:33;;;;;;;16.70;11.52;;;;;;;;;;5058427;28;20047;-82
2021/07/23 00:15:18;;;;;;;15.55;10.68;;;;;;;;;;5047274;28;20116;-82
2021/07/23 00:18:03;;;;;;;14.50;10.45;;;;;;;;;;5035207;28;20048;-82
2021/07/23 00:20:48;;;;;;;14.82;11.27;;;;;;;;;;5035481;28;20061;-82
2021/07/23 00:23:33;;;;;;;17.55;11.15;;;;;;;;;;5049059;28;20055;-82
2021/07/23 00:26:19;;;;;;;17.20;11.70;;;;;;;;;;5035335;28;20047;-83
2021/07/23 00:29:04;;;;;;;16.17;11.23;;;;;;;;;;5035229;28;20442;-82
2021/07/23 00:31:49;;;;;;;16.80;11.35;;;;;;;;;;5035039;28;20047;-82
2021/07/23 00:34:34;;;;;;;15.75;10.50;;;;;;;;;;5033384;28;20183;-82
2021/07/23 00:37:20;;;;;;;14.68;11.40;;;;;;;;;;5034780;28;20059;-83
2021/07/23 00:40:05;;;;;;;15.50;10.60;;;;;;;;;;5017813;28;20381;-82
2021/07/23 00:42:50;;;;;;;12.77;9.88;;;;;;;;;;5009235;28;20082;-81
2021/07/23 00:45:36;;;;;;;16.85;11.77;;;;;;;;;;5008993;28;20029;-83
2021/07/23 00:48:22;;;;;;;15.98;10.52;;;;;;;;;;5009298;28;20018;-83
2021/07/23 00:51:08;;;;;;;17.85;11.20;;;;;;;;;;5008940;28;20026;-82
2021/07/23 00:53:53;;;;;;;14.52;11.07;;;;;;;;;;5008918;28;20054;-83
2021/07/23 00:56:38;;;;;;;13.45;10.13;;;;;;;;;;5009128;28;20022;-82
2021/07/23 00:59:23;;;;;;;15.25;10.82;;;;;;;;;;5008904;28;20022;-81
2021/07/23 01:02:09;;;;;;;15.32;10.13;;;;;;;;;;5008127;28;20030;-84
2021/07/23 01:04:54;;;;;;;14.50;11.05;;;;;;;;;;5008729;28;20105;-82
2021/07/23 01:07:39;;;;;;;18.10;10.68;;;;;;;;;;5008683;28;20022;-82
2021/07/23 01:10:25;;;;;;;13.38;10.48;;;;;;;;;;5007012;28;20127;-82
2021/07/23 01:13:13;;;;;;;15.20;10.95;;;;;;;;;;5022162;28;20472;-82
2021/07/23 01:15:58;;;;;;;16.27;11.27;;;;;;;;;;5014798;28;20068;-82
2021/07/23 01:18:43;;;;;;;16.90;10.20;;;;;;;;;;5008827;28;20018;-82
2021/07/23 01:21:29;;;;;;;16.67;11.93;;;;;;;;;;5008430;28;20030;-82
2021/07/23 01:24:14;;;;;;;12.90;10.70;;;;;;;;;;5008692;28;20048;-81
2021/07/23 01:26:59;;;;;;;14.38;10.55;;;;;;;;;;5008291;28;20018;-81
2021/07/23 01:29:45;;;;;;;16.13;11.52;;;;;;;;;;5022176;28;20029;-82
2021/07/23 01:32:30;;;;;;;14.27;10.55;;;;;;;;;;5008411;28;20033;-81
2021/07/23 01:35:15;;;;;;;15.75;10.98;;;;;;;;;;5008508;28;20117;-81
2021/07/23 01:38:02;;;;;;;15.80;10.73;;;;;;;;;;5008121;28;20449;-81
2021/07/23 01:40:48;;;;;;;14.88;10.15;;;;;;;;;;4994558;28;20080;-82
2021/07/23 01:43:33;;;;;;;14.85;10.57;;;;;;;;;;5007879;28;20507;-82
2021/07/23 01:46:18;;;;;;;16.20;10.80;;;;;;;;;;5008513;28;20030;-82
2021/07/23 01:49:04;;;;;;;19.38;11.50;;;;;;;;;;5008165;28;20113;-82
2021/07/23 01:51:49;;;;;;;14.98;10.95;;;;;;;;;;5008315;28;20036;-82
2021/07/23 01:54:35;;;;;;;14.85;11.85;;;;;;;;;;5008234;28;20056;-82
2021/07/23 01:57:20;;;;;;;15.35;10.60;;;;;;;;;;5008178;28;20068;-83
2021/07/23 02:00:06;;;;;;;14.57;10.88;;;;;;;;;;5006653;28;20412;-83
2021/07/23 02:02:51;;;;;;;18.60;10.75;;;;;;;;;;5007940;28;20073;-82
2021/07/23 02:05:36;;;;;;;13.82;10.20;;;;;;;;;;5007702;28;20040;-83
2021/07/23 02:08:21;;;;;;;14.80;11.13;;;;;;;;;;5008123;28;20032;-82
2021/07/23 02:11:06;;;;;;;14.02;10.23;;;;;;;;;;5021548;28;20092;-82
2021/07/23 02:13:52;;;;;;;14.85;11.48;;;;;;;;;;5028999;28;20053;-82
2021/07/23 02:16:39;;;;;;;18.67;12.05;;;;;;;;;;5012910;28;20112;-82
2021/07/23 02:19:25;;;;;;;15.38;10.80;;;;;;;;;;5011831;28;20053;-82
2021/07/23 02:22:10;;;;;;;17.55;12.35;;;;;;;;;;5011935;28;20500;-82
2021/07/23 02:24:55;;;;;;;16.98;11.68;;;;;;;;;;4993422;28;20426;-82
2021/07/23 02:27:40;;;;;;;14.35;10.48;;;;;;;;;;4992127;28;20026;-84
2021/07/23 02:30:25;;;;;;;12.98;9.88;;;;;;;;;;4990335;28;20596;-82
2021/07/23 02:33:11;;;;;;;15.75;10.80;;;;;;;;;;4991908;28;20062;-82
2021/07/23 02:35:56;;;;;;;19.17;10.70;;;;;;;;;;4991931;28;20022;-82
2021/07/23 02:38:41;;;;;;;12.82;9.98;;;;;;;;;;4992024;28;20053;-83
2021/07/23 02:41:26;;;;;;;14.52;10.68;;;;;;;;;;5005200;28;20038;-82
2021/07/23 02:44:11;;;;;;;15.65;11.00;;;;;;;;;;4991847;28;20022;-82
2021/07/23 02:46:56;;;;;;;15.40;10.15;;;;;;;;;;4991385;28;20026;-82
2021/07/23 02:49:42;;;;;;;13.85;10.85;;;;;;;;;;4989756;28;20049;-82
2021/07/23 02:52:27;;;;;;;17.40;11.05;;;;;;;;;;4991844;28;20082;-81
2021/07/23 02:55:12;;;;;;;15.38;9.90;;;;;;;;;;4991536;28;20034;-82
2021/07/23 02:57:57;;;;;;;13.90;10.07;;;;;;;;;;5005636;28;20033;-82
2021/07/23 03:00:43;;;;;;;15.48;10.25;;;;;;;;;;4989858;28;20119;-82
2021/07/23 03:03:28;;;;;;;16.33;10.35;;;;;;;;;;5005056;28;20381;-82
2021/07/23 03:06:13;;;;;;;15.18;10.20;;;;;;;;;;4989578;28;20031;-83
2021/07/23 03:08:58;;;;;;;15.07;10.93;;;;;;;;;;4991242;28;20354;-84
2021/07/23 03:11:43;;;;;;;14.43;10.60;;;;;;;;;;4995752;28;20117;-83
2021/07/23 03:14:30;;;;;;;16.38;10.70;;;;;;;;;;5029459;28;20025;-83
2021/07/23 03:17:15;;;;;;;13.43;9.93;;;;;;;;;;5010886;28;20026;-83
2021/07/23 03:20:02;;;;;;;13.38;10.23;;;;;;;;;;5010653;28;20512;-83
2021/07/23 03:22:47;;;;;;;15.25;10.90;;;;;;;;;;5010638;28;20030;-83
2021/07/23 03:25:32;;;;;;;15.70;11.25;;;;;;;;;;5009823;28;20037;-83
2021/07/23 03:28:17;;;;;;;15.60;10.38;;;;;;;;;;5010787;28;20069;-82
2021/07/23 03:31:02;;;;;;;16.90;10.40;;;;;;;;;;5009018;28;20412;-82
2021/07/23 03:33:49;;;;;;;16.08;10.90;;;;;;;;;;5010619;28;20033;-82
2021/07/23 03:36:34;;;;;;;13.98;10.40;;;;;;;;;;5010507;28;20061;-83
2021/07/23 03:39:20;;;;;;;15.13;10.65;;;;;;;;;;5013429;28;20048;-84
2021/07/23 03:42:05;;;;;;;15.45;10.75;;;;;;;;;;5035843;28;20028;-82
2021/07/23 03:44:50;;;;;;;15.73;10.68;;;;;;;;;;5035481;28;20472;-83
2021/07/23 03:47:35;;;;;;;16.88;11.02;;;;;;;;;;5028769;28;20013;-82
2021/07/23 03:50:20;;;;;;;14.80;10.68;;;;;;;;;;5021667;28;20110;-83
2021/07/23 03:53:06;;;;;;;17.98;11.05;;;;;;;;;;5032141;28;20383;-82
2021/07/23 03:55:51;;;;;;;15.95;10.60;;;;;;;;;;5032184;28;20039;-82
2021/07/23 03:58:36;;;;;;;15.70;10.93;;;;;;;;;;5031668;28;20068;-82
2021/07/23 04:01:21;;;;;;;14.30;10.95;;;;;;;;;;5031669;28;20545;-81
2021/07/23 04:04:07;;;;;;;13.60;10.13;;;;;;;;;;5032135;28;20414;-81
2021/07/23 04:06:56;;;;;;;17.23;11.32;;;;;;;;;;5044967;28;20025;-82
2021/07/23 04:09:41;;;;;;;14.77;11.38;;;;;;;;;;5031783;28;20029;-82
2021/07/23 04:12:26;;;;;;;15.15;10.63;;;;;;;;;;5043204;28;20028;-82
2021/07/23 04:15:11;;;;;;;14.10;10.48;;;;;;;;;;5062150;28;20137;-82
2021/07/23 04:17:56;;;;;;;15.35;10.32;;;;;;;;;;5035499;28;20246;-83
2021/07/23 04:20:42;;;;;;;12.65;9.65;;;;;;;;;;5035121;28;20025;-83
2021/07/23 04:23:27;;;;;;;15.75;10.55;;;;;;;;;;5035122;28;20417;-83
2021/07/23 04:26:12;;;;;;;16.92;11.68;;;;;;;;;;5035274;28;20387;-83
2021/07/23 04:28:57;;;;;;;14.35;11.27;;;;;;;;;;5035269;28;20106;-83
2021/07/23 04:31:43;;;;;;;18.45;10.80;;;;;;;;;;5049398;28;20032;-82
2021/07/23 04:34:28;;;;;;;13.80;10.38;;;;;;;;;;5035275;28;20219;-82
2021/07/23 04:37:13;;;;;;;13.18;9.43;;;;;;;;;;5048864;28;20028;-83
2021/07/23 04:39:58;;;;;;;15.23;11.98;;;;;;;;;;5034707;28;20053;-82
2021/07/23 04:42:43;;;;;;;19.17;10.98;;;;;;;;;;5034602;28;20025;-82
2021/07/23 04:45:29;;;;;;;15.80;10.15;;;;;;;;;;5034628;28;20028;-82
2021/07/23 04:48:14;;;;;;;14.75;10.63;;;;;;;;;;5035169;28;20017;-86
2021/07/23 04:51:06;;;;;;;14.90;10.43;;;;;;;;;;5033310;28;20086;-82
2021/07/23 04:53:51;;;;;;;14.60;10.32;;;;;;;;;;5034903;28;20025;-82
2021/07/23 04:56:36;;;;;;;16.48;10.77;;;;;;;;;;5048565;28;20032;-81
2021/07/23 04:59:22;;;;;;;14.88;11.13;;;;;;;;;;5032914;28;20030;-81
2021/07/23 05:02:07;;;;;;;13.73;9.52;;;;;;;;;;5020562;28;20365;-81
2021/07/23 05:04:53;;;;;;;16.83;11.00;;;;;;;;;;5032751;28;20021;-83
2021/07/23 05:07:41;;;;;;;17.38;10.68;;;;;;;;;;5034749;28;20021;-82
2021/07/23 05:10:27;;;;;;;14.50;10.40;;;;;;;;;;5032973;28;20028;-82
2021/07/23 05:13:12;;;;;;;13.02;9.23;;;;;;;;;;5048530;28;20025;-83
2021/07/23 05:15:57;;;;;;;14.50;10.77;;;;;;;;;;5037224;28;20663;-82
2021/07/23 05:18:43;;;;;;;14.55;9.68;;;;;;;;;;5034192;28;20025;-84
2021/07/23 05:21:28;;;;;;;13.18;9.63;;;;;;;;;;5034227;28;20092;-82
2021/07/23 05:24:13;;;;;;;15.70;10.98;;;;;;;;;;5034618;28;20341;-81
2021/07/23 05:26:58;;;;;;;14.85;10.23;;;;;;;;;;5033924;28;20507;-82
2021/07/23 05:29:44;;;;;;;15.02;10.95;;;;;;;;;;5034130;28;20033;-82
2021/07/23 05:32:29;;;;;;;22.23;18.02;;;;;;;;;;5034258;28;20029;-82
2021/07/23 05:35:14;;;;;;;16.45;10.95;;;;;;;;;;5034236;28;20044;-82
2021/07/23 05:37:59;;;;;;;15.32;10.77;;;;;;;;;;5034218;28;20502;-82
2021/07/23 05:40:44;;;;;;;13.80;10.40;;;;;;;;;;5033713;28;20052;-82
2021/07/23 05:43:30;;;;;;;12.60;9.38;;;;;;;;;;5034052;28;20383;-82
2021/07/23 05:46:15;;;;;;;14.02;10.20;;;;;;;;;;5034048;28;20464;-83
2021/07/23 05:49:01;;;;;;;13.65;10.88;;;;;;;;;;5033232;28;20068;-82
2021/07/23 05:51:46;;;;;;;14.88;10.52;;;;;;;;;;5034194;28;20032;-82
2021/07/23 05:54:31;;;;;;;15.88;9.65;;;;;;;;;;5033977;28;20486;-83
2021/07/23 05:57:17;;;;;;;14.43;10.68;;;;;;;;;;5034142;28;20067;-83
2021/07/23 06:00:04;;;;;;;16.38;9.73;;;;;;;;;;5031711;28;20021;-82
2021/07/23 06:02:49;;;;;;;15.40;11.70;;;;;;;;;;5033451;28;20017;-82
2021/07/23 06:05:34;;;;;;;15.93;11.18;;;;;;;;;;5033301;28;20104;-82
2021/07/23 06:08:20;;;;;;;16.30;10.82;;;;;;;;;;5033967;28;20025;-83
2021/07/23 06:11:06;;;;;;;13.23;10.30;;;;;;;;;;5033453;28;20520;-83
2021/07/23 06:13:51;;;;;;;18.38;10.20;;;;;;;;;;5033849;28;20142;-83
2021/07/23 06:16:38;;;;;;;15.93;10.00;;;;;;;;;;5052047;28;20394;-83
2021/07/23 06:19:23;;;;;;;12.70;9.45;;;;;;;;;;5053728;28;20032;-83
2021/07/23 06:22:09;;;;;;;14.60;11.05;;;;;;;;;;5053320;28;20028;-83
2021/07/23 06:24:56;;;;;;;23.08;16.88;;;;;;;;;;5053518;28;20021;-81
2021/07/23 06:27:41;;;;;;;14.27;12.40;;;;;;;;;;5053530;28;20471;-85
2021/07/23 06:30:26;;;;;;;14.32;10.57;;;;;;;;;;5053463;28;20024;-83
2021/07/23 06:33:12;;;;;;;13.77;10.15;;;;;;;;;;5053648;28;20104;-82
2021/07/23 06:35:59;;;;;;;14.38;10.23;;;;;;;;;;5053488;28;20025;-83
2021/07/23 06:38:44;;;;;;;15.57;10.65;;;;;;;;;;5054134;28;20024;-83
2021/07/23 06:41:30;;;;;;;14.80;9.85;;;;;;;;;;5053379;28;20155;-83
2021/07/23 06:44:15;;;;;;;16.70;10.20;;;;;;;;;;5053474;28;20052;-83
2021/07/23 06:47:00;;;;;;;14.73;10.38;;;;;;;;;;5053025;28;20078;-83
2021/07/23 06:49:47;;;;;;;19.52;11.10;;;;;;;;;;5053439;28;20020;-83
2021/07/23 06:52:34;;;;;;;18.83;13.07;;;;;;;;;;5053266;28;20185;-83
2021/07/23 06:55:19;;;;;;;15.02;11.88;;;;;;;;;;5050008;28;20047;-84
2021/07/23 06:58:04;;;;;;;14.02;11.57;;;;;;;;;;5053183;28;20028;-83
2021/07/23 07:00:49;;;;;;;20.23;11.52;;;;;;;;;;5055191;28;20016;-83
2021/07/23 07:03:35;;;;;;;15.43;11.20;;;;;;;;;;5056986;28;20028;-84
2021/07/23 07:06:20;;;;;;;17.67;11.70;;;;;;;;;;5056796;28;20463;-84
2021/07/23 07:09:05;;;;;;;21.23;12.60;;;;;;;;;;5057060;28;20074;-84
2021/07/23 07:11:50;;;;;;;16.40;11.57;;;;;;;;;;5053912;28;20028;-84
2021/07/23 07:14:36;;;;;;;16.08;11.20;;;;;;;;;;5039041;28;20443;-84
2021/07/23 07:17:22;;;;;;;15.05;11.80;;;;;;;;;;5056393;28;20433;-83
2021/07/23 07:20:07;;;;;;;14.60;11.57;;;;;;;;;;5056169;28;20113;-84
2021/07/23 07:22:53;;;;;;;18.20;11.57;;;;;;;;;;5056502;28;20028;-84
2021/07/23 07:25:38;;;;;;;16.33;11.13;;;;;;;;;;5056889;28;20184;-84
2021/07/23 07:28:23;;;;;;;18.33;11.50;;;;;;;;;;5056260;28;20448;-84
2021/07/23 07:31:12;;;;;;;22.80;10.40;;;;;;;;;;5055012;28;20035;-85
2021/07/23 07:33:58;;;;;;;15.25;10.40;;;;;;;;;;5056207;28;20044;-84
2021/07/23 07:36:43;;;;;;;14.13;10.23;;;;;;;;;;5056497;28;20054;-84
2021/07/23 07:39:28;;;;;;;16.08;11.02;;;;;;;;;;5054476;28;20037;-85
2021/07/23 07:42:16;;;;;;;18.75;13.18;;;;;;;;;;5056223;28;20017;-84
2021/07/23 07:45:02;;;;;;;21.70;16.38;;;;;;;;;;5056025;28;20025;-84
2021/07/23 07:47:51;;;;;;;19.20;13.77;;;;;;;;;;5055951;28;20017;-85
2021/07/23 07:50:36;;;;;;;17.65;11.48;;;;;;;;;;5056261;28;20032;-86
2021/07/23 07:53:21;;;;;;;16.70;10.20;;;;;;;;;;5069593;28;20016;-84
2021/07/23 07:56:07;;;;;;;19.92;11.20;;;;;;;;;;5056363;28;20028;-85
2021/07/23 07:58:52;;;;;;;18.70;11.70;;;;;;;;;;5055660;28;20025;-84
2021/07/23 08:01:37;;;;;;;13.85;10.23;;;;;;;;;;5055827;28;20103;-84
2021/07/23 08:04:22;;;;;;;13.02;10.32;;;;;;;;;;5055222;28;20029;-85
2021/07/23 08:07:12;;;;;;;20.65;12.48;;;;;;;;;;5052903;28;20021;-86
2021/07/23 08:09:59;;;;;;;17.20;11.70;;;;;;;;;;5053890;28;20020;-85
2021/07/23 08:12:44;;;;;;;16.02;11.05;;;;;;;;;;5044593;28;20391;-85
2021/07/23 08:15:30;;;;;;;18.33;13.55;;;;;;;;;;5042204;28;20439;-85
2021/07/23 08:18:15;;;;;;;18.08;11.20;;;;;;;;;;5055176;28;20421;-84
2021/07/23 08:21:01;;;;;;;19.30;12.57;;;;;;;;;;5053831;28;20052;-85
2021/07/23 08:23:47;;;;;;;30.80;25.50;;;;;;;;;;5068893;28;20386;-85
2021/07/23 08:26:32;;;;;;;16.25;11.02;;;;;;;;;;5055393;28;20024;-85
2021/07/23 08:29:17;;;;;;;18.35;11.43;;;;;;;;;;5054961;28;20020;-84
2021/07/23 08:32:07;;;;;;;16.55;11.65;;;;;;;;;;5059913;28;20025;-84
2021/07/23 08:34:56;;;;;;;15.57;11.90;;;;;;;;;;5052950;28;20081;-84
2021/07/23 08:37:41;;;;;;;16.95;11.77;;;;;;;;;;5069375;28;20387;-85
2021/07/23 08:40:27;;;;;;;16.27;12.18;;;;;;;;;;5055039;28;20056;-84
2021/07/23 08:43:12;;;;;;;20.88;11.82;;;;;;;;;;5053080;28;20068;-85
2021/07/23 08:45:57;;;;;;;17.13;11.27;;;;;;;;;;5054891;28;20415;-84
2021/07/23 08:48:42;;;;;;;18.85;12.38;;;;;;;;;;5055070;28;20074;-84
2021/07/23 08:51:28;;;;;;;23.67;18.70;;;;;;;;;;5054907;28;20027;-85
2021/07/23 08:54:13;;;;;;;27.98;22.30;;;;;;;;;;5054605;28;20448;-85
2021/07/23 08:56:58;;;;;;;19.10;13.40;;;;;;;;;;5068835;28;20212;-86
2021/07/23 08:59:43;;;;;;;19.83;12.73;;;;;;;;;;5054912;28;20111;-85
2021/07/23 09:02:48;;;;;;;15.25;12.02;;;;;;;;;;5054783;28;20054;-85
2021/07/23 09:05:45;;;;;;;21.38;12.43;;;;;;;;;;5054465;28;20032;-85
2021/07/23 09:08:44;;;;;;;17.25;11.02;;;;;;;;;;5068401;28;20025;-85
2021/07/23 09:11:30;;;;;;;15.02;10.48;;;;;;;;;;5038810;28;20063;-85
2021/07/23 09:14:16;;;;;;;16.63;11.82;;;;;;;;;;5054642;28;20441;-84
2021/07/23 09:17:01;;;;;;;20.42;11.38;;;;;;;;;;5014226;28;20021;-84
2021/07/23 09:20:02;;;;;;;17.38;11.70;;;;;;;;;;5013361;28;20093;-85
2021/07/23 09:22:52;;;;;;;14.07;9.98;;;;;;;;;;5013385;28;20483;-86
2021/07/23 09:25:39;;;;;;;13.02;11.15;;;;;;;;;;5013228;28;20401;-85
2021/07/23 09:28:29;;;;;;;17.52;10.68;;;;;;;;;;5014153;28;20097;-85
2021/07/23 09:31:21;;;;;;;15.48;10.70;;;;;;;;;;5012348;28;20021;-85
2021/07/23 09:34:07;;;;;;;15.48;10.98;;;;;;;;;;5015066;28;20322;-85
2021/07/23 09:37:05;;;;;;;13.98;11.18;;;;;;;;;;5014600;28;20025;-85
2021/07/23 09:39:59;;;;;;;17.23;11.37;;;;;;;;;;5013860;28;20056;-85
2021/07/23 09:42:54;;;;;;;15.30;10.60;;;;;;;;;;5013952;28;20037;-85
2021/07/23 09:45:40;;;;;;;13.55;10.75;;;;;;;;;;5014239;28;20513;-85
2021/07/23 09:48:27;;;;;;;16.50;10.23;;;;;;;;;;5014110;28;20025;-84
2021/07/23 09:51:13;;;;;;;15.60;10.27;;;;;;;;;;5014612;28;20033;-85
2021/07/23 09:53:58;;;;;;;13.57;10.88;;;;;;;;;;5000698;28;20392;-85
2021/07/23 09:56:44;;;;;;;18.27;11.00;;;;;;;;;;5014452;28;20120;-85
2021/07/23 09:59:29;;;;;;;16.73;10.20;;;;;;;;;;5013755;28;20538;-85
2021/07/23 10:02:21;;;;;;;15.77;10.88;;;;;;;;;;5014143;28;20025;-85
2021/07/23 10:05:07;;;;;;;24.13;17.48;;;;;;;;;;5014042;28;20021;-85
2021/07/23 10:07:59;;;;;;;14.88;10.40;;;;;;;;;;5013872;28;20147;-85
2021/07/23 10:10:46;;;;;;;15.77;10.23;;;;;;;;;;5012341;28;20476;-85
2021/07/23 10:13:34;;;;;;;13.73;10.13;;;;;;;;;;5047359;28;20078;-85
2021/07/23 10:16:20;;;;;;;17.27;10.98;;;;;;;;;;5037069;28;20029;-85
2021/07/23 10:19:06;;;;;;;16.25;10.48;;;;;;;;;;5032125;28;20033;-85
2021/07/23 10:21:56;;;;;;;13.63;9.98;;;;;;;;;;5033188;28;20025;-84
2021/07/23 10:24:42;;;;;;;17.45;10.23;;;;;;;;;;5033738;28;20025;-85
2021/07/23 10:27:27;;;;;;;14.32;9.68;;;;;;;;;;5033674;28;20083;-85
2021/07/23 10:30:27;;;;;;;14.68;9.73;;;;;;;;;;5033628;28;20422;-84
2021/07/23 10:33:32;;;;;;;16.60;11.10;;;;;;;;;;5033620;28;20021;-84
2021/07/23 10:36:27;;;;;;;13.40;9.68;;;;;;;;;;5023711;28;20487;-85
2021/07/23 10:39:19;;;;;;;13.55;9.95;;;;;;;;;;5035857;28;20032;-84
2021/07/23 10:42:07;;;;;;;17.10;10.10;;;;;;;;;;5037137;28;20036;-85
2021/07/23 10:44:53;;;;;;;14.77;10.27;;;;;;;;;;5033942;28;20032;-85
2021/07/23 10:47:39;;;;;;;15.80;10.50;;;;;;;;;;5037405;28;20021;-84
2021/07/23 10:50:27;;;;;;;14.07;10.18;;;;;;;;;;5036996;28;20489;-85
2021/07/23 10:53:32;;;;;;;12.20;9.90;;;;;;;;;;5037327;28;20418;-85
2021/07/23 10:56:17;;;;;;;13.25;9.55;;;;;;;;;;5021646;28;20112;-87
2021/07/23 10:59:02;;;;;;;13.00;10.15;;;;;;;;;;5021672;28;20017;-85
2021/07/23 11:01:48;;;;;;;15.73;10.10;;;;;;;;;;5036488;28;20445;-85
2021/07/23 11:04:34;;;;;;;15.60;9.98;;;;;;;;;;5037155;28;20468;-85
2021/07/23 11:07:23;;;;;;;13.32;9.77;;;;;;;;;;5036788;28;20028;-88
2021/07/23 11:10:11;;;;;;;13.00;8.77;;;;;;;;;;5036842;28;20017;-85
2021/07/23 11:12:56;;;;;;;14.77;10.57;;;;;;;;;;5048746;28;20031;-85
2021/07/23 11:15:41;;;;;;;14.07;9.95;;;;;;;;;;5045226;28;20490;-84
2021/07/23 11:18:27;;;;;;;12.63;10.75;;;;;;;;;;5036706;28;20029;-85
2021/07/23 11:21:12;;;;;;;12.73;9.60;;;;;;;;;;5036442;28;20163;-85
2021/07/23 11:23:57;;;;;;;12.93;9.90;;;;;;;;;;5036854;28;20033;-85
2021/07/23 11:26:50;;;;;;;13.85;10.68;;;;;;;;;;5036798;28;20122;-85
2021/07/23 11:29:37;;;;;;;13.93;10.68;;;;;;;;;;5036678;28;20021;-84
2021/07/23 11:32:22;;;;;;;15.18;9.95;;;;;;;;;;5036344;28;20021;-84
2021/07/23 11:35:08;;;;;;;14.57;9.57;;;;;;;;;;5037315;28;20024;-85
2021/07/23 11:37:54;;;;;;;18.27;10.40;;;;;;;;;;5035685;28;20040;-85
2021/07/23 11:40:40;;;;;;;26.33;22.83;;;;;;;;;;5033923;28;20605;-85
2021/07/23 11:43:25;;;;;;;13.15;10.50;;;;;;;;;;5036158;28;20523;-85
2021/07/23 11:46:11;;;;;;;14.30;10.18;;;;;;;;;;5035237;28;20352;-85
2021/07/23 11:48:56;;;;;;;12.30;10.13;;;;;;;;;;5034743;28;20119;-85
2021/07/23 11:51:43;;;;;;;13.50;10.05;;;;;;;;;;5036018;28;20028;-85
2021/07/23 11:54:29;;;;;;;14.45;9.73;;;;;;;;;;5036076;28;20387;-85
2021/07/23 11:57:14;;;;;;;30.45;27.25;;;;;;;;;;5036206;28;20035;-87
2021/07/23 11:59:59;;;;;;;15.25;13.00;;;;;;;;;;5035954;28;20116;-84
2021/07/23 12:02:44;;;;;;;14.48;9.88;;;;;;;;;;5035465;28;20025;-85
2021/07/23 12:05:31;;;;;;;13.98;10.07;;;;;;;;;;5036056;28;20121;-85
2021/07/23 12:08:16;;;;;;;13.52;9.18;;;;;;;;;;5035979;28;20382;-85
2021/07/23 12:11:01;;;;;;;13.85;9.13;;;;;;;;;;5036281;28;20032;-85
2021/07/23 12:13:47;;;;;;;13.70;9.75;;;;;;;;;;5054612;28;20032;-85
2021/07/23 12:16:32;;;;;;;13.40;9.25;;;;;;;;;;5037369;28;20033;-84
2021/07/23 12:19:18;;;;;;;18.05;9.77;;;;;;;;;;5035631;28;20036;-85
2021/07/23 12:22:10;;;;;;;15.20;10.68;;;;;;;;;;5035612;28;20469;-84
2021/07/23 12:24:56;;;;;;;11.68;9.60;;;;;;;;;;5035637;28;20033;-85
2021/07/23 12:27:41;;;;;;;11.25;9.35;;;;;;;;;;5035451;28;20426;-85
2021/07/23 12:30:31;;;;;;;10.93;9.23;;;;;;;;;;5033608;28;20207;-85
2021/07/23 12:33:29;;;;;;;13.15;9.27;;;;;;;;;;5035557;28;20013;-86
2021/07/23 12:36:22;;;;;;;14.27;9.60;;;;;;;;;;5033944;28;20021;-85
2021/07/23 12:39:08;;;;;;;14.90;9.88;;;;;;;;;;5034772;28;20021;-85
2021/07/23 12:41:53;;;;;;;15.13;9.07;;;;;;;;;;5034686;28;20109;-85
2021/07/23 12:44:38;;;;;;;12.95;9.70;;;;;;;;;;5035108;28;20323;-85
2021/07/23 12:47:24;;;;;;;16.80;9.82;;;;;;;;;;5034970;28;20044;-85
2021/07/23 12:50:12;;;;;;;14.00;9.45;;;;;;;;;;5035253;28;20024;-84
2021/07/23 12:52:58;;;;;;;10.93;9.23;;;;;;;;;;5034917;28;20391;-85
2021/07/23 12:55:53;;;;;;;13.60;9.57;;;;;;;;;;5034821;28;20029;-84
2021/07/23 12:58:43;;;;;;;11.57;8.57;;;;;;;;;;5033838;28;20020;-85
2021/07/23 13:01:28;;;;;;;13.65;9.63;;;;;;;;;;5034459;28;20159;-85
2021/07/23 13:04:13;;;;;;;12.13;9.40;;;;;;;;;;5034720;28;20058;-85
2021/07/23 13:06:58;;;;;;;13.75;9.35;;;;;;;;;;5034983;28;20104;-86
2021/07/23 13:09:45;;;;;;;13.95;9.82;;;;;;;;;;5034664;28;20028;-85
2021/07/23 13:12:32;;;;;;;15.05;9.65;;;;;;;;;;5029401;28;20032;-85
2021/07/23 13:15:18;;;;;;;14.10;9.13;;;;;;;;;;5046347;28;20033;-85
2021/07/23 13:18:04;;;;;;;11.75;9.60;;;;;;;;;;5034715;28;20025;-85
2021/07/23 13:20:49;;;;;;;13.48;9.30;;;;;;;;;;5033029;28;20036;-85
2021/07/23 13:23:34;;;;;;;15.93;9.60;;;;;;;;;;5034445;28;20032;-85
2021/07/23 13:26:19;;;;;;;11.43;9.02;;;;;;;;;;5034512;28;20028;-85
2021/07/23 13:29:07;;;;;;;12.48;9.07;;;;;;;;;;5034438;28;20028;-84
2021/07/23 13:31:53;;;;;;;13.40;9.10;;;;;;;;;;5034940;28;20396;-85
2021/07/23 13:34:38;;;;;;;10.40;8.45;;;;;;;;;;5034845;28;20028;-85
2021/07/23 13:37:32;;;;;;;11.45;9.13;;;;;;;;;;5035327;28;20037;-85
2021/07/23 13:40:20;;;;;;;14.05;9.50;;;;;;;;;;5020965;28;20575;-85
2021/07/23 13:43:07;;;;;;;12.55;8.73;;;;;;;;;;5034795;28;20047;-84
2021/07/23 13:45:53;;;;;;;15.07;10.68;;;;;;;;;;5034344;28;20021;-85
2021/07/23 13:48:39;;;;;;;14.23;8.95;;;;;;;;;;5035788;28;20452;-85
2021/07/23 13:51:24;;;;;;;13.95;11.35;;;;;;;;;;5032709;28;20025;-84
2021/07/23 13:54:09;;;;;;;13.20;9.00;;;;;;;;;;5033960;28;20486;-85
2021/07/23 13:56:54;;;;;;;15.05;9.38;;;;;;;;;;5034041;28;20028;-85
2021/07/23 13:59:40;;;;;;;14.77;9.57;;;;;;;;;;5033899;28;20162;-85
2021/07/23 14:02:25;;;;;;;14.82;10.27;;;;;;;;;;5033772;28;20085;-84
2021/07/23 14:05:10;;;;;;;13.77;9.13;;;;;;;;;;5033796;28;20463;-84
2021/07/23 14:07:55;;;;;;;12.98;9.25;;;;;;;;;;5047686;28;20029;-84
2021/07/23 14:10:41;;;;;;;12.65;9.15;;;;;;;;;;5036837;28;20078;-84
2021/07/23 14:13:26;;;;;;;12.15;10.60;;;;;;;;;;5054271;28;20021;-85
2021/07/23 14:16:11;;;;;;;13.57;9.27;;;;;;;;;;5042455;28;20082;-85
2021/07/23 14:18:56;;;;;;;14.02;9.95;;;;;;;;;;5037650;28;20032;-85
2021/07/23 14:21:42;;;;;;;15.77;9.20;;;;;;;;;;5037967;28;20024;-87
2021/07/23 14:24:28;;;;;;;14.63;9.27;;;;;;;;;;5036044;28;20063;-85
2021/07/23 14:27:13;;;;;;;11.75;9.15;;;;;;;;;;5037735;28;20029;-85
2021/07/23 14:29:58;;;;;;;12.18;8.63;;;;;;;;;;5037573;28;20013;-85
2021/07/23 14:32:43;;;;;;;11.50;8.43;;;;;;;;;;5037588;28;20029;-85
2021/07/23 14:35:29;;;;;;;13.13;10.15;;;;;;;;;;5036057;28;20032;-86
2021/07/23 14:38:14;;;;;;;14.80;9.73;;;;;;;;;;5037353;28;20094;-85
2021/07/23 14:40:59;;;;;;;12.68;9.45;;;;;;;;;;5037245;28;20049;-85
2021/07/23 14:43:45;;;;;;;12.98;9.73;;;;;;;;;;5037767;28;20029;-85
2021/07/23 14:46:30;;;;;;;12.32;9.93;;;;;;;;;;5037133;28;20021;-85
2021/07/23 14:49:15;;;;;;;33.67;27.83;;;;;;;;;;5035357;28;20503;-85
2021/07/23 14:52:01;;;;;;;13.68;10.60;;;;;;;;;;5037265;28;20093;-85
2021/07/23 14:54:46;;;;;;;12.77;9.50;;;;;;;;;;5037434;28;20032;-85
2021/07/23 14:57:31;;;;;;;13.13;9.20;;;;;;;;;;5037173;28;20025;-85
2021/07/23 15:00:18;;;;;;;10.85;8.48;;;;;;;;;;5037078;28;20119;-85
2021/07/23 15:03:04;;;;;;;14.73;8.75;;;;;;;;;;5036777;28;20040;-85
2021/07/23 15:05:49;;;;;;;15.80;9.50;;;;;;;;;;5036712;28;20421;-86
2021/07/23 15:08:34;;;;;;;10.50;8.48;;;;;;;;;;5036948;28;20024;-84
2021/07/23 15:11:19;;;;;;;10.55;8.65;;;;;;;;;;5037140;28;20084;-84
2021/07/23 15:14:07;;;;;;;17.40;11.35;;;;;;;;;;5030927;28;20033;-84
2021/07/23 15:16:52;;;;;;;14.02;9.65;;;;;;;;;;5037019;28;20032;-85
2021/07/23 15:19:37;;;;;;;13.88;9.57;;;;;;;;;;5035478;28;20446;-85
2021/07/23 15:22:25;;;;;;;13.90;9.50;;;;;;;;;;5035222;28;20021;-85
2021/07/23 15:25:12;;;;;;;11.60;9.40;;;;;;;;;;5036795;28;20028;-85
2021/07/23 15:27:58;;;;;;;14.30;9.40;;;;;;;;;;5036692;28;20108;-84
2021/07/23 15:30:44;;;;;;;14.27;10.30;;;;;;;;;;5036816;28;20054;-85
2021/07/23 15:33:29;;;;;;;13.82;9.68;;;;;;;;;;5037023;28;20024;-85
2021/07/23 15:36:14;;;;;;;12.43;8.82;;;;;;;;;;5036761;28;20029;-87
2021/07/23 15:39:00;;;;;;;12.30;9.35;;;;;;;;;;5034623;28;20442;-86
2021/07/23 15:41:45;;;;;;;12.23;8.70;;;;;;;;;;5036450;28;20040;-85
2021/07/23 15:44:30;;;;;;;14.90;10.82;;;;;;;;;;5033215;28;20032;-84
2021/07/23 15:47:15;;;;;;;13.00;9.80;;;;;;;;;;5033084;28;20032;-86
2021/07/23 15:50:00;;;;;;;15.02;10.15;;;;;;;;;;5036321;28;20024;-84
2021/07/23 15:52:46;;;;;;;13.43;9.60;;;;;;;;;;5036441;28;20047;-84
2021/07/23 15:55:31;;;;;;;14.57;10.10;;;;;;;;;;5022493;28;20112;-85
2021/07/23 15:58:16;;;;;;;13.48;10.02;;;;;;;;;;5035982;28;20438;-85
2021/07/23 16:01:02;;;;;;;12.15;9.75;;;;;;;;;;5034559;28;20433;-85
2021/07/23 16:03:47;;;;;;;16.10;11.68;;;;;;;;;;5035996;28;20699;-85
2021/07/23 16:06:33;;;;;;;15.88;11.02;;;;;;;;;;5035888;28;20119;-85
2021/07/23 16:09:18;;;;;;;12.95;10.48;;;;;;;;;;5033064;28;20013;-86
2021/07/23 16:12:03;;;;;;;12.40;8.98;;;;;;;;;;5046422;28;20475;-85